Current Weather

Livermore Muni

Livermore, California (KLVK)

Report from: Wednesday, August 17, 2022 6:53 PM PDT
Current time: Wednesday, August 17, 2022 7:16 PM PDT

Nearby weather
Weather history
Weather forecast

Temperature30.6°C (87.1°F)
Heat index28.9°C (84.1°F)
Dew point7.8°C (46.0°F)
Winds 10 kts (5.1 m/s, 11.5 mph) West-Northwest (290°)
Visibility10 mi. (16.1 km)
Clouds Sky clear
Altimeter29.84 in.Hg (1010 mB)
Relative humidity24 %
Density altitude2,032 ft. (619 m)
Sea-level pressure101.0 kPa (1010 mB, 29.83 in.Hg)
Remarks Automated weather observing station with precipitation discriminator
Flight conditions Visual Meteorological Conditions
Raw dataKLVK 180153Z 29010KT 10SM CLR 31/08 A2984 RMK AO2 SLP101 T03060078
An error has occurred. This application may no longer respond until reloaded. Reload 🗙